Time;durP1;ratioP1;P1;durP2;ratioP2;P2;SDS_P1;SDS_P2;PMS_P1;PMS_P2;Temp;Humidity;BMP_temperature;BMP_pressure;BME280_temperature;BME280_humidity;BME280_pressure;Samples;Min_cycle;Max_cycle;Signal;HPM_P1;HPM_P2
2022/07/06 00:01:44;;;;;;;1.85;1.42;;;;;;;18.20;95.00;101853.22;6125369;23;20103;-81
2022/07/06 00:04:09;;;;;;;0.90;0.80;;;;;;;18.15;94.94;101855.41;6125692;23;20115;-82
2022/07/06 00:06:34;;;;;;;2.38;1.23;;;;;;;17.79;97.29;101853.69;6125013;23;20009;-82
2022/07/06 00:09:00;;;;;;;2.45;1.40;;;;;;;17.94;96.68;101849.09;6125750;23;20325;-82
2022/07/06 00:11:25;;;;;;;1.67;1.30;;;;;;;17.95;94.96;101842.78;6125343;23;20041;-82
2022/07/06 00:13:51;;;;;;;2.08;1.40;;;;;;;17.94;95.95;101851.75;6125719;23;20452;-82
2022/07/06 00:16:18;;;;;;;2.58;1.70;;;;;;;17.95;96.37;101848.09;6125814;23;20002;-82
2022/07/06 00:18:43;;;;;;;2.35;1.02;;;;;;;17.97;96.47;101846.16;6125609;23;20013;-82
2022/07/06 00:21:09;;;;;;;2.60;1.52;;;;;;;17.95;96.22;101833.03;6125647;23;20037;-82
2022/07/06 00:23:34;;;;;;;1.65;1.40;;;;;;;17.85;97.16;101837.31;6123960;23;20014;-81
2022/07/06 00:25:59;;;;;;;1.77;1.25;;;;;;;17.93;97.32;101834.97;6125818;23;20426;-81
2022/07/06 00:28:25;;;;;;;2.20;1.40;;;;;;;17.96;97.65;101849.81;6125544;23;20340;-81
2022/07/06 00:30:52;;;;;;;1.58;1.23;;;;;;;17.95;96.44;101845.44;6125412;23;19998;-81
2022/07/06 00:33:18;;;;;;;2.90;1.60;;;;;;;17.84;96.76;101839.16;6125333;23;20464;-80
2022/07/06 00:35:43;;;;;;;2.03;1.40;;;;;;;17.87;97.00;101842.53;6125231;23;20077;-81
2022/07/06 00:38:08;;;;;;;1.77;1.40;;;;;;;17.86;97.60;101847.00;6125282;23;20417;-81
2022/07/06 00:40:34;;;;;;;2.20;1.30;;;;;;;17.88;96.97;101846.91;6125575;23;20020;-81
2022/07/06 00:42:59;;;;;;;1.52;1.00;;;;;;;17.83;96.35;101850.75;6125438;23;20002;-81
2022/07/06 00:45:25;;;;;;;2.50;1.10;;;;;;;17.82;97.83;101848.16;6125193;23;20024;-81
2022/07/06 00:47:50;;;;;;;3.17;1.20;;;;;;;17.76;97.29;101843.31;6124714;23;20008;-81
2022/07/06 00:50:23;;;;;;;2.13;1.30;;;;;;;17.75;98.23;101838.97;6125392;23;20033;-81
2022/07/06 00:52:50;;;;;;;3.72;1.50;;;;;;;17.67;97.65;101839.53;6124988;23;20012;-81
2022/07/06 00:55:21;;;;;;;2.08;1.10;;;;;;;17.66;98.02;101831.72;6125257;23;20073;-81
2022/07/06 00:57:47;;;;;;;2.45;1.30;;;;;;;17.61;98.34;101824.94;6124955;23;20002;-81
2022/07/06 01:00:15;;;;;;;2.25;1.30;;;;;;;17.60;98.60;101827.69;6125338;23;20013;-81
2022/07/06 01:02:41;;;;;;;1.40;1.20;;;;;;;17.60;98.06;101831.19;6123511;23;20476;-81
2022/07/06 01:05:09;;;;;;;2.30;1.33;;;;;;;17.60;98.25;101831.19;6124583;23;20002;-82
2022/07/06 01:07:36;;;;;;;3.88;1.42;;;;;;;17.53;98.98;101827.28;6123165;23;20010;-82
2022/07/06 01:10:03;;;;;;;3.45;1.77;;;;;;;17.59;99.22;101824.16;6125045;23;20481;-81
2022/07/06 01:12:29;;;;;;;2.28;1.88;;;;;;;17.51;98.38;101820.41;6124798;23;20010;-81
2022/07/06 01:14:55;;;;;;;3.58;2.45;;;;;;;17.50;99.52;101821.38;6123694;23;20435;-81
2022/07/06 01:17:21;;;;;;;2.30;1.95;;;;;;;17.44;99.64;101815.56;6122280;23;20479;-81
2022/07/06 01:19:47;;;;;;;1.60;1.35;;;;;;;17.26;99.48;101827.56;6147656;23;20377;-82
2022/07/06 01:22:12;;;;;;;1.60;1.25;;;;;;;17.02;100.00;101831.03;6124710;23;20033;-81
2022/07/06 01:24:38;;;;;;;2.55;1.10;;;;;;;16.90;100.00;101813.34;6125077;23;20476;-81
2022/07/06 01:27:05;;;;;;;1.85;1.27;;;;;;;17.14;100.00;101813.38;6125301;23;20005;-81
2022/07/06 01:29:31;;;;;;;3.90;1.23;;;;;;;17.10;100.00;101825.19;6125076;23;20081;-81
2022/07/06 01:31:56;;;;;;;1.50;0.90;;;;;;;17.08;100.00;101832.41;6124859;23;20526;-82
2022/07/06 01:34:22;;;;;;;1.20;1.05;;;;;;;16.95;100.00;101824.47;6124731;23;20089;-80
2022/07/06 01:36:47;;;;;;;2.00;1.52;;;;;;;16.68;100.00;101829.06;6124872;23;20029;-80
2022/07/06 01:39:12;;;;;;;3.08;1.20;;;;;;;16.43;100.00;101831.66;6124869;23;20005;-82
2022/07/06 01:41:38;;;;;;;1.20;1.00;;;;;;;16.43;100.00;101836.13;6124402;23;20057;-81
2022/07/06 01:44:04;;;;;;;1.15;0.95;;;;;;;16.43;100.00;101825.53;6125021;23;19998;-81
2022/07/06 01:46:30;;;;;;;2.58;1.25;;;;;;;16.51;100.00;101828.47;6124847;23;20006;-81
2022/07/06 01:48:56;;;;;;;1.23;1.02;;;;;;;16.52;100.00;101827.50;6124552;23;20009;-82
2022/07/06 01:51:22;;;;;;;2.03;0.90;;;;;;;17.02;100.00;101825.75;6124379;23;20006;-82
2022/07/06 01:53:48;;;;;;;1.30;1.20;;;;;;;17.13;100.00;101824.09;6124456;23;20009;-80
2022/07/06 01:56:14;;;;;;;1.90;1.10;;;;;;;16.57;100.00;101828.03;6124850;23;20002;-82
2022/07/06 01:58:39;;;;;;;1.90;1.27;;;;;;;17.10;100.00;101827.84;6124523;23;20517;-82
2022/07/06 02:01:19;;;;;;;1.65;1.17;;;;;;;17.26;100.00;101830.22;6124999;23;20012;-82
2022/07/06 02:03:45;;;;;;;0.80;0.70;;;;;;;17.01;100.00;101831.16;6124431;23;20361;-82
2022/07/06 02:06:11;;;;;;;1.63;1.13;;;;;;;17.24;100.00;101832.13;6124852;23;20012;-82
2022/07/06 02:08:38;;;;;;;2.55;1.35;;;;;;;17.24;100.00;101840.09;6124905;23;20057;-82
2022/07/06 02:11:05;;;;;;;1.98;1.02;;;;;;;16.92;100.00;101824.69;6124752;23;20484;-83
2022/07/06 02:13:31;;;;;;;1.45;1.13;;;;;;;16.64;100.00;101828.44;6124012;23;20010;-82
2022/07/06 02:15:56;;;;;;;1.90;1.08;;;;;;;17.20;100.00;101825.31;6122905;23;20072;-83
2022/07/06 02:18:21;;;;;;;1.10;1.00;;;;;;;17.06;100.00;101818.38;6124624;23;20421;-82
2022/07/06 02:20:47;;;;;;;2.40;1.00;;;;;;;17.18;100.00;101827.25;6124510;23;20061;-81
2022/07/06 02:23:12;;;;;;;1.55;1.17;;;;;;;17.25;100.00;101825.84;6124617;23;20030;-81
2022/07/06 02:25:38;;;;;;;1.25;1.00;;;;;;;17.36;100.00;101828.56;6124502;23;20081;-81
2022/07/06 02:28:03;;;;;;;2.42;1.60;;;;;;;17.16;100.00;101834.47;6124651;23;20002;-83
2022/07/06 02:30:29;;;;;;;2.00;1.35;;;;;;;17.44;100.00;101839.47;6147848;23;20428;-83
2022/07/06 02:32:54;;;;;;;4.20;1.13;;;;;;;17.62;100.00;101831.09;6123990;23;20341;-83
2022/07/06 02:35:19;;;;;;;1.40;1.30;;;;;;;17.79;100.00;101841.28;6124370;23;20029;-82
2022/07/06 02:37:45;;;;;;;3.50;1.20;;;;;;;17.88;100.00;101846.91;6124272;23;20005;-82
2022/07/06 02:40:11;;;;;;;1.90;1.10;;;;;;;18.01;100.00;101852.97;6124359;23;19999;-83
2022/07/06 02:42:36;;;;;;;1.38;0.93;;;;;;;18.10;100.00;101849.59;6124360;23;20115;-82
2022/07/06 02:45:01;;;;;;;2.80;1.10;;;;;;;18.24;100.00;101852.03;6124430;23;20010;-82
2022/07/06 02:47:27;;;;;;;1.38;1.20;;;;;;;18.38;100.00;101852.75;6122688;23;20002;-81
2022/07/06 02:49:52;;;;;;;2.85;0.88;;;;;;;18.40;100.00;101838.41;6124237;23;20013;-81
2022/07/06 02:52:18;;;;;;;3.05;1.00;;;;;;;18.42;100.00;101849.78;6123853;23;20071;-81
2022/07/06 02:54:44;;;;;;;1.55;1.30;;;;;;;18.50;100.00;101838.50;6124370;23;20009;-81
2022/07/06 02:57:09;;;;;;;1.00;0.90;;;;;;;18.52;100.00;101839.25;6124253;23;20037;-81
2022/07/06 02:59:36;;;;;;;1.45;0.88;;;;;;;18.64;100.00;101834.75;6124545;23;20001;-81
2022/07/06 03:02:05;;;;;;;1.10;1.00;;;;;;;18.78;100.00;101836.34;6124299;23;20081;-81
2022/07/06 03:04:30;;;;;;;1.58;1.00;;;;;;;18.83;100.00;101837.66;6122868;23;20014;-82
2022/07/06 03:06:56;;;;;;;1.85;1.10;;;;;;;18.78;100.00;101836.34;6124143;23;20318;-82
2022/07/06 03:09:21;;;;;;;1.83;1.55;;;;;;;18.71;100.00;101835.13;6123912;23;20505;-82
2022/07/06 03:11:47;;;;;;;2.38;1.00;;;;;;;18.47;100.00;101837.91;6125427;23;20040;-81
2022/07/06 03:14:12;;;;;;;1.27;1.08;;;;;;;18.66;100.00;101832.84;6126109;23;20009;-82
2022/07/06 03:16:37;;;;;;;1.58;1.35;;;;;;;18.84;100.00;101835.88;6125824;23;19994;-81
2022/07/06 03:19:03;;;;;;;2.28;1.30;;;;;;;18.39;100.00;101835.88;6124585;23;20010;-82
2022/07/06 03:21:28;;;;;;;2.50;1.70;;;;;;;18.24;100.00;101827.25;6126381;23;20002;-82
2022/07/06 03:23:54;;;;;;;1.42;1.33;;;;;;;18.59;100.00;101832.47;6126125;23;20413;-82
2022/07/06 03:26:19;;;;;;;1.75;1.40;;;;;;;18.44;100.00;101833.66;6126039;23;20006;-82
2022/07/06 03:28:44;;;;;;;2.17;1.45;;;;;;;18.62;100.00;101829.56;6126029;23;20053;-82
2022/07/06 03:31:09;;;;;;;3.92;1.70;;;;;;;18.53;100.00;101832.13;6126232;23;20081;-82
2022/07/06 03:33:35;;;;;;;5.38;1.52;;;;;;;18.83;100.00;101834.16;6125782;23;20006;-81
2022/07/06 03:36:00;;;;;;;1.63;1.17;;;;;;;19.09;100.00;101828.56;6125856;23;20009;-81
2022/07/06 03:38:26;;;;;;;1.10;1.00;;;;;;;19.13;100.00;101822.00;6124575;23;20065;-81
2022/07/06 03:40:51;;;;;;;2.30;1.10;;;;;;;18.97;100.00;101819.75;6125738;23;20009;-81
2022/07/06 03:43:17;;;;;;;1.38;1.20;;;;;;;19.06;100.00;101816.34;6125787;23;20006;-82
2022/07/06 03:45:42;;;;;;;1.45;0.98;;;;;;;19.08;100.00;101813.56;6124511;23;20057;-82
2022/07/06 03:48:08;;;;;;;2.03;0.95;;;;;;;19.30;100.00;101799.31;6125772;23;20002;-82
2022/07/06 03:50:33;;;;;;;1.63;1.00;;;;;;;19.18;100.00;101795.84;6125794;23;20475;-82
2022/07/06 03:52:59;;;;;;;1.75;1.30;;;;;;;19.28;100.00;101788.78;6125985;23;20031;-82
2022/07/06 03:55:24;;;;;;;1.13;1.02;;;;;;;19.44;100.00;101800.84;6125215;23;20009;-82
2022/07/06 03:57:49;;;;;;;1.50;0.90;;;;;;;19.39;100.00;101799.41;6126025;23;20041;-82
2022/07/06 04:00:15;;;;;;;1.85;1.20;;;;;;;19.21;99.90;101796.44;6125808;23;20002;-82
2022/07/06 04:02:41;;;;;;;1.38;0.93;;;;;;;19.25;100.00;101797.03;6125494;23;20006;-82
2022/07/06 04:05:07;;;;;;;1.38;1.00;;;;;;;19.35;100.00;101805.97;6124292;23;20110;-81
2022/07/06 04:07:32;;;;;;;1.10;1.00;;;;;;;19.18;100.00;101814.50;6125119;23;20141;-82
2022/07/06 04:09:57;;;;;;;1.40;1.08;;;;;;;19.19;100.00;101818.84;6125476;23;20314;-82
2022/07/06 04:12:23;;;;;;;1.67;1.15;;;;;;;19.34;98.88;101817.56;6125149;23;20052;-82
2022/07/06 04:14:48;;;;;;;1.85;1.30;;;;;;;19.30;98.62;101810.81;6125415;23;20002;-82
2022/07/06 04:19:58;;;;;;;1.05;1.05;;;;;;;19.37;97.25;101803.16;6125600;23;20093;-82
2022/07/06 04:22:23;;;;;;;2.63;1.00;;;;;;;19.20;98.52;101809.88;6125307;23;20037;-82
2022/07/06 04:24:49;;;;;;;1.52;1.27;;;;;;;19.00;100.00;101804.38;6123519;23;20002;-82
2022/07/06 04:27:14;;;;;;;1.55;1.02;;;;;;;19.21;99.08;101809.75;6125548;23;20036;-82
2022/07/06 04:29:39;;;;;;;2.25;1.13;;;;;;;19.21;98.22;101808.91;6125525;23;20006;-82
2022/07/06 04:32:05;;;;;;;2.05;1.38;;;;;;;19.20;99.95;101815.22;6125703;23;20002;-81
2022/07/06 04:34:30;;;;;;;1.88;0.90;;;;;;;18.90;100.00;101822.06;6124188;23;20006;-83
2022/07/06 04:36:56;;;;;;;1.73;1.10;;;;;;;19.15;100.00;101822.72;6126030;23;20015;-83
2022/07/06 04:39:21;;;;;;;1.25;1.10;;;;;;;19.14;100.00;101826.38;6125515;23;20381;-82
2022/07/06 04:41:46;;;;;;;1.60;1.50;;;;;;;19.42;100.00;101825.78;6125261;23;20413;-82
2022/07/06 04:44:12;;;;;;;3.20;1.20;;;;;;;19.61;99.71;101829.59;6125177;23;20013;-82
2022/07/06 04:46:37;;;;;;;1.98;1.33;;;;;;;19.70;98.61;101822.63;6125305;23;20006;-82
2022/07/06 04:49:02;;;;;;;3.60;1.88;;;;;;;19.71;98.37;101827.00;6125370;23;20002;-81
2022/07/06 04:51:27;;;;;;;2.65;1.63;;;;;;;19.78;97.02;101820.19;6125180;23;20002;-81
2022/07/06 04:53:53;;;;;;;1.63;1.52;;;;;;;20.05;97.10;101821.47;6125303;23;20005;-81
2022/07/06 04:56:18;;;;;;;3.15;1.42;;;;;;;20.11;95.43;101816.47;6125144;23;19998;-81
2022/07/06 04:58:43;;;;;;;1.80;1.45;;;;;;;19.96;97.74;101823.97;6125284;23;20002;-82
2022/07/06 05:01:09;;;;;;;4.32;1.77;;;;;;;20.13;97.17;101825.16;6125286;23;20089;-82
2022/07/06 05:03:40;;;;;;;5.38;1.65;;;;;;;19.98;98.13;101827.34;6125148;23;20031;-81
2022/07/06 05:06:06;;;;;;;3.75;1.85;;;;;;;20.12;97.66;101828.81;6125031;23;20006;-81
2022/07/06 05:08:32;;;;;;;2.13;1.70;;;;;;;20.14;97.26;101837.53;6125271;23;20032;-82
2022/07/06 05:10:57;;;;;;;3.67;2.38;;;;;;;20.27;96.53;101839.13;6124761;23;20428;-82
2022/07/06 05:13:23;;;;;;;6.78;2.00;;;;;;;19.96;96.87;101831.09;6124743;23;20017;-82
2022/07/06 05:15:48;;;;;;;3.60;1.85;;;;;;;19.62;99.51;101825.94;6123454;23;20002;-82
2022/07/06 05:18:13;;;;;;;3.75;2.30;;;;;;;19.62;99.15;101825.94;6125210;23;20009;-82
2022/07/06 05:20:39;;;;;;;2.92;2.10;;;;;;;19.37;100.00;101830.66;6125192;23;20028;-82
2022/07/06 05:23:04;;;;;;;3.03;2.08;;;;;;;19.67;100.00;101830.84;6125214;23;20009;-82
2022/07/06 05:25:30;;;;;;;1.98;1.88;;;;;;;19.65;99.53;101830.13;6125121;23;20439;-83
2022/07/06 05:27:55;;;;;;;2.72;1.70;;;;;;;19.19;100.00;101834.81;6123261;23;20386;-82
2022/07/06 05:30:21;;;;;;;2.55;1.95;;;;;;;19.52;99.58;101833.00;6124781;23;20369;-81
2022/07/06 05:32:46;;;;;;;2.92;2.10;;;;;;;19.46;100.00;101844.16;6124888;23;20002;-82
2022/07/06 05:35:11;;;;;;;5.68;2.53;;;;;;;18.95;100.00;101841.16;6123455;23;20043;-83
2022/07/06 05:37:37;;;;;;;3.47;2.63;;;;;;;18.81;100.00;101844.94;6125092;23;20052;-82
2022/07/06 05:40:03;;;;;;;4.93;2.55;;;;;;;18.99;100.00;101841.75;6123327;23;20010;-83
2022/07/06 05:42:28;;;;;;;2.22;2.03;;;;;;;18.89;100.00;101846.13;6124920;23;20298;-82
2022/07/06 05:44:57;;;;;;;2.95;2.13;;;;;;;19.20;100.00;101840.00;6123606;23;20425;-82
2022/07/06 05:50:13;;;;;;;3.70;2.40;;;;;;;19.14;100.00;101845.00;6124959;23;20033;-82
2022/07/06 05:52:38;;;;;;;;;;;;;;;19.46;100.00;101852.16;6125269;23;20013;-82
2022/07/06 05:55:04;;;;;;;4.10;3.15;;;;;;;19.49;100.00;101838.56;6124727;23;19909;-82
2022/07/06 05:57:30;;;;;;;5.50;2.25;;;;;;;19.21;100.00;101840.84;6124834;23;20002;-82
2022/07/06 05:59:55;;;;;;;3.45;2.40;;;;;;;19.40;100.00;101848.19;6124759;23;20045;-82
2022/07/06 06:02:20;;;;;;;2.88;2.30;;;;;;;19.41;100.00;101850.72;6125057;23;20006;-82
2022/07/06 06:04:46;;;;;;;2.63;2.20;;;;;;;19.48;100.00;101839.56;6124612;23;20073;-82
2022/07/06 06:07:11;;;;;;;3.50;2.20;;;;;;;19.92;100.00;101832.34;6124509;23;20033;-82
2022/07/06 06:09:36;;;;;;;3.80;2.30;;;;;;;19.97;100.00;101838.13;6125137;23;20041;-82
2022/07/06 06:12:02;;;;;;;2.50;2.25;;;;;;;20.06;100.00;101834.66;6124690;23;20088;-82
2022/07/06 06:14:27;;;;;;;4.07;2.58;;;;;;;20.11;100.00;101843.13;6124223;23;20045;-82
2022/07/06 06:16:52;;;;;;;3.22;2.22;;;;;;;20.16;100.00;101848.91;6124861;23;20013;-82
2022/07/06 06:19:18;;;;;;;2.53;2.33;;;;;;;20.28;100.00;101844.34;6124796;23;20337;-82
2022/07/06 06:21:43;;;;;;;3.00;2.00;;;;;;;20.85;99.98;101852.72;6124684;23;20496;-82
2022/07/06 06:24:09;;;;;;;3.55;2.00;;;;;;;20.85;99.80;101842.03;6124414;23;20329;-82
2022/07/06 06:26:34;;;;;;;3.65;1.90;;;;;;;20.73;98.28;101848.47;6122245;23;20013;-80
2022/07/06 06:28:59;;;;;;;3.15;2.35;;;;;;;21.33;96.04;101851.97;6124683;23;20002;-81
2022/07/06 06:31:25;;;;;;;2.70;1.77;;;;;;;21.31;96.49;101851.28;6123691;23;20006;-81
2022/07/06 06:33:50;;;;;;;3.53;2.00;;;;;;;21.86;93.48;101847.19;6124328;23;20013;-81
2022/07/06 06:36:16;;;;;;;4.70;1.95;;;;;;;21.97;91.11;101861.25;6124516;23;20006;-81
2022/07/06 06:38:41;;;;;;;2.40;1.90;;;;;;;21.80;92.67;101848.63;6124626;23;20057;-81
2022/07/06 06:41:06;;;;;;;2.38;1.83;;;;;;;22.02;89.70;101851.94;6123856;23;20010;-81
2022/07/06 06:43:32;;;;;;;2.58;1.95;;;;;;;22.71;86.16;101843.59;6124557;23;20002;-81
2022/07/06 06:45:57;;;;;;;3.33;2.08;;;;;;;24.31;77.42;101842.84;6125068;23;20085;-82
2022/07/06 06:48:22;;;;;;;4.47;1.40;;;;;;;28.20;57.38;101833.44;6126443;23;20013;-82
2022/07/06 06:50:48;;;;;;;1.73;1.30;;;;;;;28.84;51.80;101847.19;6126458;23;20005;-83
2022/07/06 06:53:13;;;;;;;2.03;1.27;;;;;;;26.86;57.20;101846.50;6126058;23;20017;-83
2022/07/06 06:55:39;;;;;;;5.15;1.52;;;;;;;26.17;59.75;101839.00;6125486;23;20013;-83
2022/07/06 06:58:04;;;;;;;1.88;1.42;;;;;;;26.25;58.95;101838.97;6126549;23;20012;-82
2022/07/06 07:00:29;;;;;;;4.78;1.30;;;;;;;25.83;59.29;101845.41;6124876;23;20010;-82
2022/07/06 07:02:55;;;;;;;2.28;1.50;;;;;;;25.94;59.80;101840.72;6126076;23;20524;-83
2022/07/06 07:05:20;;;;;;;2.60;1.30;;;;;;;25.18;61.86;101840.81;6126324;23;20009;-82
2022/07/06 07:07:46;;;;;;;4.38;1.52;;;;;;;24.84;64.04;101827.47;6125911;23;20014;-83
2022/07/06 07:10:11;;;;;;;3.13;1.63;;;;;;;24.32;68.60;101837.31;6123988;23;20057;-82
2022/07/06 07:12:43;;;;;;;2.38;1.38;;;;;;;24.01;72.06;101842.31;6124842;23;20014;-82
2022/07/06 07:15:09;;;;;;;3.00;1.48;;;;;;;24.41;69.44;101838.19;6126377;23;20006;-82
2022/07/06 07:17:34;;;;;;;2.15;1.30;;;;;;;24.88;65.77;101835.06;6125950;23;20439;-83
2022/07/06 07:19:59;;;;;;;3.72;2.38;;;;;;;25.33;62.73;101841.88;6125825;23;20002;-82
2022/07/06 07:22:25;;;;;;;1.35;1.17;;;;;;;25.57;62.92;101833.97;6126069;23;20033;-83
2022/07/06 07:24:50;;;;;;;2.40;1.30;;;;;;;26.96;57.84;101840.88;6126087;23;20468;-81
2022/07/06 07:27:15;;;;;;;2.67;1.38;;;;;;;29.34;51.19;101831.06;6125985;23;20010;-82
2022/07/06 07:29:41;;;;;;;2.78;1.40;;;;;;;30.83;46.94;101838.91;6125929;23;20030;-82
2022/07/06 07:32:06;;;;;;;3.30;1.40;;;;;;;33.97;38.79;101837.91;6125315;23;20448;-81
2022/07/06 07:34:32;;;;;;;3.47;1.17;;;;;;;34.43;36.50;101836.56;6126058;23;20332;-84
2022/07/06 07:36:57;;;;;;;2.80;1.50;;;;;;;35.07;35.75;101817.88;6125781;23;20012;-83
2022/07/06 07:39:22;;;;;;;2.15;1.05;;;;;;;35.01;34.55;101809.78;6125974;23;20006;-83
2022/07/06 07:41:50;;;;;;;5.82;1.08;;;;;;;33.98;36.44;101812.31;6125367;23;20435;-83
2022/07/06 07:44:15;;;;;;;4.30;0.60;;;;;;;33.94;36.77;101811.94;6125366;23;20008;-83
2022/07/06 07:46:41;;;;;;;1.55;1.08;;;;;;;33.08;37.54;101805.34;6148630;23;20109;-83
2022/07/06 07:49:07;;;;;;;2.35;0.90;;;;;;;32.73;38.43;101800.31;6125557;23;20013;-83
2022/07/06 07:51:32;;;;;;;1.67;0.80;;;;;;;35.78;34.74;101776.97;6125782;23;20013;-83
2022/07/06 07:53:58;;;;;;;3.53;0.80;;;;;;;38.36;30.34;101808.47;6125919;23;20006;-83
2022/07/06 07:56:23;;;;;;;1.83;0.70;;;;;;;36.30;31.85;101803.53;6125749;23;20017;-85
2022/07/06 07:58:48;;;;;;;;;;;;;;;34.13;34.98;101811.97;6124549;23;20037;-83
2022/07/06 08:01:14;;;;;;;4.05;1.08;;;;;;;34.53;35.39;101803.31;6125641;23;19944;-82
2022/07/06 08:03:39;;;;;;;4.25;1.10;;;;;;;34.24;35.32;101807.66;6125758;23;20029;-81
2022/07/06 08:06:05;;;;;;;2.15;0.90;;;;;;;32.45;38.85;101810.72;6125283;23;20002;-82
2022/07/06 08:08:30;;;;;;;1.95;0.73;;;;;;;34.21;36.42;101792.59;6125350;23;20048;-81
2022/07/06 08:10:55;;;;;;;2.53;0.93;;;;;;;33.26;36.58;101795.63;6125790;23;20455;-82
2022/07/06 08:13:21;;;;;;;1.85;0.82;;;;;;;32.40;39.14;101793.13;6125704;23;20467;-81
2022/07/06 08:15:46;;;;;;;0.98;0.55;;;;;;;32.13;39.56;101780.72;6125675;23;20369;-82
2022/07/06 08:18:12;;;;;;;1.35;0.55;;;;;;;31.60;39.84;101787.91;6125557;23;20060;-82
2022/07/06 08:20:37;;;;;;;2.10;0.70;;;;;;;31.74;40.09;101785.19;6125691;23;20425;-82
2022/07/06 08:23:03;;;;;;;2.40;0.60;;;;;;;29.71;44.56;101793.09;6125278;23;20323;-82
2022/07/06 08:25:29;;;;;;;2.88;0.60;;;;;;;29.38;45.67;101801.78;6125742;23;20088;-82
2022/07/06 08:27:54;;;;;;;1.08;0.82;;;;;;;28.88;46.20;101805.22;6125646;23;20373;-82
2022/07/06 08:30:20;;;;;;;2.20;0.55;;;;;;;28.49;47.85;101803.69;6125301;23;20089;-82
2022/07/06 08:32:45;;;;;;;0.98;0.55;;;;;;;29.51;45.38;101803.78;6125053;23;20077;-82
2022/07/06 08:35:11;;;;;;;2.60;0.88;;;;;;;29.10;46.29;101791.72;6125480;23;20024;-82
2022/07/06 08:37:36;;;;;;;1.20;0.60;;;;;;;29.18;45.95;101799.72;6125438;23;19998;-82
2022/07/06 08:40:03;;;;;;;1.90;0.60;;;;;;;28.99;47.44;101801.19;6125238;23;20056;-81
2022/07/06 08:42:33;;;;;;;2.22;0.77;;;;;;;29.24;47.02;101801.66;6123225;23;20009;-82
2022/07/06 08:45:00;;;;;;;0.90;0.75;;;;;;;28.85;47.27;101808.31;6123788;23;20002;-82
2022/07/06 08:47:27;;;;;;;1.10;0.63;;;;;;;29.53;46.13;101797.13;6124371;23;20005;-82
2022/07/06 08:49:53;;;;;;;0.65;0.40;;;;;;;29.81;45.15;101797.13;6123911;23;20460;-82
2022/07/06 08:52:19;;;;;;;0.95;0.70;;;;;;;30.13;44.69;101788.56;6123910;23;20330;-82
2022/07/06 08:54:45;;;;;;;2.38;0.50;;;;;;;31.59;40.98;101780.81;6123481;23;20009;-82
2022/07/06 08:57:11;;;;;;;9.65;0.70;;;;;;;30.49;43.79;101790.22;6122922;23;20006;-81
2022/07/06 08:59:38;;;;;;;0.75;0.30;;;;;;;31.14;43.41;101796.03;6122833;23;20333;-82
2022/07/06 09:02:04;;;;;;;0.88;0.25;;;;;;;31.30;41.22;101792.06;6123622;23;20009;-82
2022/07/06 09:04:32;;;;;;;1.77;0.55;;;;;;;29.84;44.47;101796.75;6122329;23;20002;-81
2022/07/06 09:06:57;;;;;;;1.55;0.70;;;;;;;28.25;49.71;101790.50;6124310;23;20006;-80
2022/07/06 09:09:24;;;;;;;2.05;0.43;;;;;;;27.58;49.71;101800.31;6122001;23;20006;-82
2022/07/06 09:11:50;;;;;;;0.60;0.22;;;;;;;29.76;46.01;101788.78;6124136;23;20009;-81
2022/07/06 09:14:15;;;;;;;2.65;0.30;;;;;;;29.80;45.42;101789.19;6124669;23;20002;-81
2022/07/06 09:16:41;;;;;;;0.77;0.40;;;;;;;29.19;46.52;101790.59;6124725;23;20029;-81
2022/07/06 09:19:07;;;;;;;0.40;0.22;;;;;;;29.70;45.44;101775.16;6124173;23;20006;-80
2022/07/06 09:21:36;;;;;;;1.83;0.40;;;;;;;27.49;49.75;101785.22;6123520;23;20006;-83
2022/07/06 09:24:02;;;;;;;2.47;0.40;;;;;;;29.02;47.41;101779.16;6124127;23;20030;-81
2022/07/06 09:26:28;;;;;;;0.88;0.30;;;;;;;28.52;48.04;101761.19;6124456;23;20434;-80
2022/07/06 09:28:56;;;;;;;1.08;0.30;;;;;;;28.13;48.69;101768.53;6123676;23;20041;-81
2022/07/06 09:31:22;;;;;;;0.93;0.40;;;;;;;28.45;48.26;101769.97;6122405;23;20033;-81
2022/07/06 09:34:05;;;;;;;1.25;0.40;;;;;;;27.28;51.45;101773.25;6123612;23;20013;-82
2022/07/06 09:36:47;;;;;;;4.38;0.40;;;;;;;28.08;50.71;101769.13;6124230;23;20464;-82
2022/07/06 09:39:23;;;;;;;0.93;0.40;;;;;;;29.68;45.20;101761.84;6123053;23;20032;-81
2022/07/06 09:41:51;;;;;;;1.20;0.50;;;;;;;28.92;47.64;101762.44;6122698;23;20708;-81
2022/07/06 09:44:24;;;;;;;1.25;0.40;;;;;;;30.66;43.49;101763.59;6123853;23;20511;-82
2022/07/06 09:46:50;;;;;;;3.22;0.40;;;;;;;29.55;45.75;101776.09;6123985;23;20428;-82
2022/07/06 09:49:20;;;;;;;1.40;0.40;;;;;;;30.34;44.17;101764.13;6124212;23;20010;-81
2022/07/06 09:51:51;;;;;;;1.15;0.50;;;;;;;28.41;46.81;101766.00;6123757;23;20057;-82
2022/07/06 09:54:17;;;;;;;2.50;0.35;;;;;;;27.84;48.22;101782.84;6124219;23;19998;-82
2022/07/06 09:56:47;;;;;;;4.20;0.90;;;;;;;28.83;46.21;101769.84;6124288;23;20021;-82
2022/07/06 09:59:16;;;;;;;0.70;0.40;;;;;;;28.58;47.08;101771.22;6124046;23;20425;-82
2022/07/06 10:01:42;;;;;;;0.65;0.30;;;;;;;30.43;44.13;101756.63;6123319;23;20114;-82
2022/07/06 10:04:10;;;;;;;0.80;0.30;;;;;;;29.80;44.67;101759.41;6123844;23;20010;-82
2022/07/06 10:06:36;;;;;;;0.80;0.38;;;;;;;29.14;46.32;101768.69;6124244;23;20318;-82
2022/07/06 10:09:06;;;;;;;0.75;0.52;;;;;;;31.66;42.09;101763.69;6124328;23;20002;-82
2022/07/06 10:11:34;;;;;;;1.45;0.55;;;;;;;30.44;41.83;101766.44;6123448;23;20314;-82
2022/07/06 10:14:03;;;;;;;0.60;0.30;;;;;;;29.42;44.56;101762.47;6124599;23;20006;-82
2022/07/06 10:16:28;;;;;;;0.65;0.30;;;;;;;28.97;45.10;101760.00;6124497;23;20002;-82
2022/07/06 10:18:55;;;;;;;1.02;0.50;;;;;;;28.57;45.48;101769.53;6124456;23;20009;-82
2022/07/06 10:21:24;;;;;;;2.45;0.30;;;;;;;28.22;46.99;101761.16;6123531;23;20006;-82
2022/07/06 10:23:50;;;;;;;0.82;0.40;;;;;;;28.84;45.99;101755.28;6123845;23;20014;-83
2022/07/06 10:26:17;;;;;;;6.25;0.40;;;;;;;28.41;46.55;101760.59;6123320;23;20006;-82
2022/07/06 10:28:43;;;;;;;1.02;0.57;;;;;;;29.12;45.01;101757.22;6123739;23;20001;-82
2022/07/06 10:31:09;;;;;;;2.20;0.20;;;;;;;29.56;44.64;101758.00;6124044;23;20005;-81
2022/07/06 10:33:36;;;;;;;2.45;0.47;;;;;;;31.94;40.18;101744.41;6123882;23;20447;-82
2022/07/06 10:36:02;;;;;;;1.95;0.30;;;;;;;29.49;43.96;101752.53;6124127;23;20002;-82
2022/07/06 10:38:32;;;;;;;3.60;0.57;;;;;;;30.33;43.41;101751.59;6124207;23;20006;-82
2022/07/06 10:41:06;;;;;;;0.57;0.30;;;;;;;29.91;43.03;101758.88;6123696;23;20006;-82
2022/07/06 10:43:36;;;;;;;0.98;0.40;;;;;;;29.41;43.67;101758.09;6123481;23;20002;-82
2022/07/06 10:46:07;;;;;;;1.00;0.37;;;;;;;28.24;45.91;101749.19;6124301;23;20006;-82
2022/07/06 10:48:37;;;;;;;1.23;0.40;;;;;;;27.33;49.19;101745.75;6124056;23;20026;-82
2022/07/06 10:51:04;;;;;;;0.73;0.40;;;;;;;28.61;46.69;101757.31;6122641;23;20002;-82
2022/07/06 10:53:39;;;;;;;1.77;0.73;;;;;;;28.11;47.71;101748.16;6123415;23;20076;-82
2022/07/06 10:56:06;;;;;;;0.80;0.55;;;;;;;29.66;45.34;101748.50;6123469;23;20033;-82
2022/07/06 10:58:46;;;;;;;0.75;0.40;;;;;;;30.28;45.22;101745.94;6122815;23;20029;-82
2022/07/06 11:01:13;;;;;;;1.75;0.38;;;;;;;30.72;41.65;101741.91;6122703;23;20017;-82
2022/07/06 11:03:44;;;;;;;1.38;0.40;;;;;;;30.14;43.04;101755.03;6123748;23;20053;-82
2022/07/06 11:06:09;;;;;;;0.98;0.32;;;;;;;30.08;43.58;101745.84;6122942;23;20009;-82
2022/07/06 11:08:44;;;;;;;1.85;0.50;;;;;;;29.51;44.58;101746.94;6122725;23;20002;-82
2022/07/06 11:11:12;;;;;;;1.73;0.65;;;;;;;29.21;44.70;101745.25;6121916;23;20005;-82
2022/07/06 11:13:47;;;;;;;4.70;0.63;;;;;;;28.76;45.75;101747.28;6121116;23;20377;-81
2022/07/06 11:16:13;;;;;;;3.90;0.60;;;;;;;29.42;45.05;101747.09;6122278;23;19998;-82
2022/07/06 11:18:48;;;;;;;1.60;0.47;;;;;;;31.27;41.65;101754.50;6122626;23;20329;-81
2022/07/06 11:21:21;;;;;;;1.63;0.60;;;;;;;31.02;40.61;101744.25;6122192;23;20425;-80
2022/07/06 11:23:49;;;;;;;0.57;0.30;;;;;;;30.50;41.85;101756.66;6122757;23;20341;-81